Kissho — JD3124 — position and weather

sailwx.info

Track history (hours):
 
Tides and Currents Weather Stations Pressure Air Temp Water Temp Dewpoint Dewpoint Depression Visibility Wind Speed Wind Dir Waves Ship Positions

Kissho

Last reported at 2016-Sep-27 19:28 UTC. Time now 2016-Sep-27 22:22 UTC.
Position N 35°36' E 139°51'.

Length 30 m.

Type: Tug. MMSI: 431002115.

Date/timePositionNaut miles runAvg speedWind from/ knotsBaromVisibWave heightAir tempDewpointWater temp
2016-Sep-27 19:28N 35°36' E 139°51'0 0.0
2016-Sep-27 14:25N 35°36' E 139°51'0 0.0
2016-Sep-27 13:28N 35°36' E 139°51'0 0.0
2016-Sep-27 10:25N 35°36' E 139°51'2 0.2
2016-Sep-27 00:33N 35°35' E 139°54'2 0.5
2016-Sep-26 20:30N 35°36' E 139°51'0 0.0
2016-Sep-26 19:33N 35°36' E 139°51'0 0.0
2016-Sep-26 15:33N 35°36' E 139°51'0 0.0
2016-Sep-26 13:33N 35°36' E 139°51'0 0.0
2016-Sep-26 11:27N 35°36' E 139°51'0 0.0
2016-Sep-26 08:30N 35°36' E 139°52'4 0.7
2016-Sep-26 02:33N 35°36' E 139°57'4 3.8
2016-Sep-26 01:32N 35°36' E 139°52'0 0.1
2016-Sep-26 00:32N 35°36' E 139°52'1 0.2
2016-Sep-25 21:33N 35°36' E 139°51'0 0.0
2016-Sep-25 17:30N 35°36' E 139°51'0 0.0
2016-Sep-25 16:27N 35°36' E 139°51'0 0.0
2016-Sep-25 15:33N 35°36' E 139°51'0 0.1
2016-Sep-25 14:33N 35°36' E 139°51'0 0.0
2016-Sep-25 12:33N 35°36' E 139°51'0 0.0
2016-Sep-25 11:30N 35°36' E 139°51'0 0.1
2016-Sep-25 10:33N 35°36' E 139°51'0 0.1
2016-Sep-25 09:33N 35°36' E 139°52'0 0.0
2016-Sep-25 07:33N 35°36' E 139°52'7 2.3
2016-Sep-25 04:33N 35°37' E 140°00'1 0.3
2016-Sep-25 00:29N 35°38' E 140°01'2 1.2
2016-Sep-24 22:32N 35°36' E 139°59'4 4.3
2016-Sep-24 21:33N 35°35' E 139°54'6 2.9
2016-Sep-24 19:33N 35°39' E 139°59'2 1.6
2016-Sep-24 18:28N 35°40' E 139°60'0 0.0
2016-Sep-24 17:28N 35°40' E 139°60'0 0.0
2016-Sep-24 16:22N 35°40' E 139°60'0 0.0
2016-Sep-24 14:10N 35°40' E 139°60'0 0.0
2016-Sep-24 12:10N 35°40' E 139°60'0 0.0
2016-Sep-24 10:28N 35°40' E 139°60'0 0.0
2016-Sep-24 09:28N 35°40' E 139°60'9 1.6
2016-Sep-24 03:33N 35°35' E 139°50'8 7.8
2016-Sep-24 02:33N 35°36' E 139°60'1 1.4
2016-Sep-24 01:28N 35°38' E 140°01'1 0.7
2016-Sep-24 00:32N 35°37' E 140°01'8 1.5
2016-Sep-23 19:28N 35°36' E 139°51'0 0.0
2016-Sep-23 17:31N 35°36' E 139°51'0 0.0
2016-Sep-23 16:28N 35°36' E 139°51'0 0.1
2016-Sep-23 15:31N 35°36' E 139°51'0 0.0
2016-Sep-23 13:28N 35°36' E 139°51'0 0.0
2016-Sep-23 09:31N 35°36' E 139°51'0 0.0
2016-Sep-23 06:31N 35°36' E 139°51'0 0.0
2016-Sep-23 04:31N 35°36' E 139°51'0 0.0
2016-Sep-23 03:16N 35°36' E 139°51'0 0.0
2016-Sep-23 02:31N 35°36' E 139°51'5 4.9
2016-Sep-23 01:33N 35°36' E 139°57'3 3.1
2016-Sep-23 00:28N 35°38' E 140°01'0 0.1
2016-Sep-22 23:28N 35°38' E 140°01'10 3.3
2016-Sep-22 20:32N 35°35' E 139°49'0 0.0
2016-Sep-22 12:32N 35°35' E 139°49'6 0.8
2016-Sep-22 04:32N 35°36' E 139°57'3 3.1
2016-Sep-22 03:25N 35°38' E 140°01'6 2.0
2016-Sep-22 00:33N 35°35' E 139°55'3 2.8
2016-Sep-21 23:33N 35°35' E 139°51'1 1.1
2016-Sep-21 22:33N 35°36' E 139°51'1 0.2
2016-Sep-21 19:27N 35°36' E 139°52'0 0.0
2016-Sep-21 16:24N 35°36' E 139°52'0 0.0
2016-Sep-21 09:33N 35°36' E 139°52'0 0.0
2016-Sep-21 08:33N 35°36' E 139°52'5 1.1
2016-Sep-21 03:33N 35°36' E 139°58'4 4.1
2016-Sep-21 02:33N 35°35' E 139°53'7 0.8
2016-Sep-20 17:28N 35°40' E 139°60'0 0.0
2016-Sep-20 14:10N 35°40' E 139°60'0 0.0
2016-Sep-20 13:28N 35°40' E 139°60'4 1.3
2016-Sep-20 10:33N 35°37' E 139°57'17 8.2
2016-Sep-20 08:31N 35°28' E 139°40'0 0.0
2016-Sep-20 07:31N 35°28' E 139°40'8 7.9
2016-Sep-20 06:33N 35°31' E 139°49'11 2.6
2016-Sep-20 02:33N 35°37' E 139°60'0 0.1
2016-Sep-19 23:33N 35°37' E 140°00'9 2.2
2016-Sep-19 19:29N 35°35' E 139°50'0 0.0
2016-Sep-19 18:32N 35°35' E 139°50'0 0.0
2016-Sep-19 16:29N 35°35' E 139°50'0 0.0
2016-Sep-19 14:32N 35°35' E 139°50'0 0.0
2016-Sep-19 13:32N 35°35' E 139°50'0 0.0
2016-Sep-19 12:29N 35°35' E 139°50'0 0.0
2016-Sep-19 11:29N 35°35' E 139°50'0 0.0
2016-Sep-19 09:26N 35°35' E 139°50'0 0.0
2016-Sep-19 07:29N 35°35' E 139°50'0 0.0
2016-Sep-19 06:32N 35°35' E 139°50'10 3.0
2016-Sep-19 03:22N 35°38' E 140°01'3 3.0
2016-Sep-19 02:32N 35°36' E 139°58'5 2.8
2016-Sep-19 00:33N 35°35' E 139°52'2 0.3
2016-Sep-18 19:33N 35°35' E 139°50'0 0.1
2016-Sep-18 15:31N 35°35' E 139°50'0 0.0
2016-Sep-18 14:31N 35°35' E 139°50'0 0.0
2016-Sep-18 10:25N 35°35' E 139°50'0 0.0
2016-Sep-18 09:31N 35°35' E 139°50'10 1.4
2016-Sep-18 02:33N 35°40' E 139°60'9 8.7
2016-Sep-18 01:33N 35°35' E 139°51'1 1.0
2016-Sep-18 00:33N 35°35' E 139°52'7 3.4
2016-Sep-17 22:21N 35°38' E 140°01'1 1.2
2016-Sep-17 21:33N 35°37' E 140°00'5 4.9
2016-Sep-17 20:33N 35°35' E 139°54'  
Track history (hours):
 
Tides and Currents Weather Stations Pressure Air Temp Water Temp Dewpoint Dewpoint Depression Visibility Wind Speed Wind Dir Waves Ship Positions

Kissho

Last reported at 2016-Sep-27 19:28 UTC. Time now 2016-Sep-27 22:22 UTC.
Position N 35°36' E 139°51'.

Length 30 m.

Type: Tug. MMSI: 431002115.

Date/timePositionNaut miles runAvg speedWind from/ knotsBaromVisibWave heightAir tempDewpointWater temp
2016-Sep-27 19:28N 35°36' E 139°51'0 0.0
2016-Sep-27 14:25N 35°36' E 139°51'0 0.0
2016-Sep-27 13:28N 35°36' E 139°51'0 0.0
2016-Sep-27 10:25N 35°36' E 139°51'2 0.2
2016-Sep-27 00:33N 35°35' E 139°54'2 0.5
2016-Sep-26 20:30N 35°36' E 139°51'0 0.0
2016-Sep-26 19:33N 35°36' E 139°51'0 0.0
2016-Sep-26 15:33N 35°36' E 139°51'0 0.0
2016-Sep-26 13:33N 35°36' E 139°51'0 0.0
2016-Sep-26 11:27N 35°36' E 139°51'0 0.0
2016-Sep-26 08:30N 35°36' E 139°52'4 0.7
2016-Sep-26 02:33N 35°36' E 139°57'4 3.8
2016-Sep-26 01:32N 35°36' E 139°52'0 0.1
2016-Sep-26 00:32N 35°36' E 139°52'1 0.2
2016-Sep-25 21:33N 35°36' E 139°51'0 0.0
2016-Sep-25 17:30N 35°36' E 139°51'0 0.0
2016-Sep-25 16:27N 35°36' E 139°51'0 0.0
2016-Sep-25 15:33N 35°36' E 139°51'0 0.1
2016-Sep-25 14:33N 35°36' E 139°51'0 0.0
2016-Sep-25 12:33N 35°36' E 139°51'0 0.0
2016-Sep-25 11:30N 35°36' E 139°51'0 0.1
2016-Sep-25 10:33N 35°36' E 139°51'0 0.1
2016-Sep-25 09:33N 35°36' E 139°52'0 0.0
2016-Sep-25 07:33N 35°36' E 139°52'7 2.3
2016-Sep-25 04:33N 35°37' E 140°00'1 0.3
2016-Sep-25 00:29N 35°38' E 140°01'2 1.2
2016-Sep-24 22:32N 35°36' E 139°59'4 4.3
2016-Sep-24 21:33N 35°35' E 139°54'6 2.9
2016-Sep-24 19:33N 35°39' E 139°59'2 1.6
2016-Sep-24 18:28N 35°40' E 139°60'0 0.0
2016-Sep-24 17:28N 35°40' E 139°60'0 0.0
2016-Sep-24 16:22N 35°40' E 139°60'0 0.0
2016-Sep-24 14:10N 35°40' E 139°60'0 0.0
2016-Sep-24 12:10N 35°40' E 139°60'0 0.0
2016-Sep-24 10:28N 35°40' E 139°60'0 0.0
2016-Sep-24 09:28N 35°40' E 139°60'9 1.6
2016-Sep-24 03:33N 35°35' E 139°50'8 7.8
2016-Sep-24 02:33N 35°36' E 139°60'1 1.4
2016-Sep-24 01:28N 35°38' E 140°01'1 0.7
2016-Sep-24 00:32N 35°37' E 140°01'8 1.5
2016-Sep-23 19:28N 35°36' E 139°51'0 0.0
2016-Sep-23 17:31N 35°36' E 139°51'0 0.0
2016-Sep-23 16:28N 35°36' E 139°51'0 0.1
2016-Sep-23 15:31N 35°36' E 139°51'0 0.0
2016-Sep-23 13:28N 35°36' E 139°51'0 0.0
2016-Sep-23 09:31N 35°36' E 139°51'0 0.0
2016-Sep-23 06:31N 35°36' E 139°51'0 0.0
2016-Sep-23 04:31N 35°36' E 139°51'0 0.0
2016-Sep-23 03:16N 35°36' E 139°51'0 0.0
2016-Sep-23 02:31N 35°36' E 139°51'5 4.9
2016-Sep-23 01:33N 35°36' E 139°57'3 3.1
2016-Sep-23 00:28N 35°38' E 140°01'0 0.1
2016-Sep-22 23:28N 35°38' E 140°01'10 3.3
2016-Sep-22 20:32N 35°35' E 139°49'0 0.0
2016-Sep-22 12:32N 35°35' E 139°49'6 0.8
2016-Sep-22 04:32N 35°36' E 139°57'3 3.1
2016-Sep-22 03:25N 35°38' E 140°01'6 2.0
2016-Sep-22 00:33N 35°35' E 139°55'3 2.8
2016-Sep-21 23:33N 35°35' E 139°51'1 1.1
2016-Sep-21 22:33N 35°36' E 139°51'1 0.2
2016-Sep-21 19:27N 35°36' E 139°52'0 0.0
2016-Sep-21 16:24N 35°36' E 139°52'0 0.0
2016-Sep-21 09:33N 35°36' E 139°52'0 0.0
2016-Sep-21 08:33N 35°36' E 139°52'5 1.1
2016-Sep-21 03:33N 35°36' E 139°58'4 4.1
2016-Sep-21 02:33N 35°35' E 139°53'7 0.8
2016-Sep-20 17:28N 35°40' E 139°60'0 0.0
2016-Sep-20 14:10N 35°40' E 139°60'0 0.0
2016-Sep-20 13:28N 35°40' E 139°60'4 1.3
2016-Sep-20 10:33N 35°37' E 139°57'17 8.2
2016-Sep-20 08:31N 35°28' E 139°40'0 0.0
2016-Sep-20 07:31N 35°28' E 139°40'8 7.9
2016-Sep-20 06:33N 35°31' E 139°49'11 2.6
2016-Sep-20 02:33N 35°37' E 139°60'0 0.1
2016-Sep-19 23:33N 35°37' E 140°00'9 2.2
2016-Sep-19 19:29N 35°35' E 139°50'0 0.0
2016-Sep-19 18:32N 35°35' E 139°50'0 0.0
2016-Sep-19 16:29N 35°35' E 139°50'0 0.0
2016-Sep-19 14:32N 35°35' E 139°50'0 0.0
2016-Sep-19 13:32N 35°35' E 139°50'0 0.0
2016-Sep-19 12:29N 35°35' E 139°50'0 0.0
2016-Sep-19 11:29N 35°35' E 139°50'0 0.0
2016-Sep-19 09:26N 35°35' E 139°50'0 0.0
2016-Sep-19 07:29N 35°35' E 139°50'0 0.0
2016-Sep-19 06:32N 35°35' E 139°50'10 3.0
2016-Sep-19 03:22N 35°38' E 140°01'3 3.0
2016-Sep-19 02:32N 35°36' E 139°58'5 2.8
2016-Sep-19 00:33N 35°35' E 139°52'2 0.3
2016-Sep-18 19:33N 35°35' E 139°50'0 0.1
2016-Sep-18 15:31N 35°35' E 139°50'0 0.0
2016-Sep-18 14:31N 35°35' E 139°50'0 0.0
2016-Sep-18 10:25N 35°35' E 139°50'0 0.0
2016-Sep-18 09:31N 35°35' E 139°50'10 1.4
2016-Sep-18 02:33N 35°40' E 139°60'9 8.7
2016-Sep-18 01:33N 35°35' E 139°51'1 1.0
2016-Sep-18 00:33N 35°35' E 139°52'7 3.4
2016-Sep-17 22:21N 35°38' E 140°01'1 1.2
2016-Sep-17 21:33N 35°37' E 140°00'5 4.9
2016-Sep-17 20:33N 35°35' E 139°54'  

Dump ship's entire track history